Time;durP1;ratioP1;P1;durP2;ratioP2;P2;SDS_P1;SDS_P2;PMS_P1;PMS_P2;Temp;Humidity;BMP_temperature;BMP_pressure;BME280_temperature;BME280_humidity;BME280_pressure;Samples;Min_cycle;Max_cycle;Signal;HPM_P1;HPM_P2
2023/05/25 00:02:06;;;;;;;4.60;3.22;;;;;;;24.68;52.39;100354.59;5073837;28;20218;-67
2023/05/25 00:04:35;;;;;;;5.32;3.38;;;;;;;24.67;52.59;100350.16;5072662;28;20052;-67
2023/05/25 00:07:04;;;;;;;4.50;3.33;;;;;;;24.67;52.51;100355.63;5073825;28;20131;-67
2023/05/25 00:09:35;;;;;;;4.15;3.10;;;;;;;24.65;52.60;100352.22;5073762;28;20473;-67
2023/05/25 00:12:03;;;;;;;4.60;3.60;;;;;;;24.64;52.45;100353.28;5073446;28;20052;-67
2023/05/25 00:14:31;;;;;;;4.28;3.40;;;;;;;24.64;52.77;100356.00;5073639;28;20051;-67
2023/05/25 00:17:02;;;;;;;4.85;3.58;;;;;;;24.63;52.39;100354.31;5073680;28;20383;-67
2023/05/25 00:19:32;;;;;;;4.60;3.42;;;;;;;24.62;52.61;100352.59;5073666;28;20577;-67
2023/05/25 00:22:01;;;;;;;4.38;3.40;;;;;;;24.61;52.84;100361.78;5073482;28;20512;-67
2023/05/25 00:24:30;;;;;;;3.95;3.15;;;;;;;24.59;52.66;100359.25;5073331;28;20048;-67
2023/05/25 00:27:01;;;;;;;4.88;3.60;;;;;;;24.59;52.83;100359.25;5073582;28;20049;-67
2023/05/25 00:29:29;;;;;;;4.45;3.53;;;;;;;24.58;52.63;100356.72;5073477;28;20041;-67
2023/05/25 00:31:58;;;;;;;4.28;3.53;;;;;;;24.57;52.90;100355.84;5073298;28;20500;-66
2023/05/25 00:34:26;;;;;;;4.53;3.38;;;;;;;24.55;52.52;100358.78;5073274;28;20457;-67
2023/05/25 00:36:54;;;;;;;4.22;3.30;;;;;;;24.54;52.61;100359.81;5073184;28;20080;-67
2023/05/25 00:39:22;;;;;;;4.60;3.60;;;;;;;24.53;52.83;100360.00;5073070;28;20094;-66
2023/05/25 00:41:50;;;;;;;4.40;3.35;;;;;;;24.53;52.63;100366.28;5073335;28;20044;-66
2023/05/25 00:44:20;;;;;;;4.60;3.50;;;;;;;24.52;52.81;100363.75;5073093;28;20127;-66
2023/05/25 00:46:50;;;;;;;4.30;3.30;;;;;;;24.52;52.75;100366.47;5073034;28;20128;-66
2023/05/25 00:49:21;;;;;;;4.78;3.40;;;;;;;24.50;52.54;100372.06;5073102;28;20106;-66
2023/05/25 00:51:52;;;;;;;4.88;3.40;;;;;;;24.50;52.64;100368.50;5073087;28;20045;-66
2023/05/25 00:54:20;;;;;;;4.63;3.45;;;;;;;24.48;52.67;100374.16;5073023;28;20135;-66
2023/05/25 00:56:52;;;;;;;4.78;3.78;;;;;;;24.48;52.94;100381.47;5072941;28;20044;-66
2023/05/25 00:59:29;;;;;;;4.38;3.50;;;;;;;24.47;52.91;100371.59;5072905;28;20056;-66
2023/05/25 01:02:03;;;;;;;4.70;3.70;;;;;;;24.44;52.97;100372.81;5072684;28;20071;-66
2023/05/25 01:04:34;;;;;;;4.75;3.58;;;;;;;24.44;52.86;100378.25;5072828;28;20052;-66
2023/05/25 01:07:05;;;;;;;4.57;3.33;;;;;;;24.44;52.93;100382.88;5072755;28;20234;-66
2023/05/25 01:09:35;;;;;;;4.60;3.67;;;;;;;24.43;52.89;100375.72;5072489;28;20040;-66
2023/05/25 01:12:04;;;;;;;5.43;3.70;;;;;;;24.42;52.95;100377.59;5071938;28;20210;-66
2023/05/25 01:14:35;;;;;;;4.70;3.47;;;;;;;24.42;53.17;100377.59;5072294;28;20391;-66
2023/05/25 01:17:03;;;;;;;5.18;3.70;;;;;;;24.40;52.92;100382.38;5072696;28;20102;-66
2023/05/25 01:19:36;;;;;;;4.43;3.45;;;;;;;24.40;53.13;100386.97;5072328;28;20051;-66
2023/05/25 01:22:12;;;;;;;4.97;4.05;;;;;;;24.38;53.19;100384.41;5072269;28;20131;-66
2023/05/25 01:24:46;;;;;;;4.55;3.63;;;;;;;24.38;53.06;100389.88;5072281;28;20231;-66
2023/05/25 01:27:21;;;;;;;5.18;4.13;;;;;;;24.37;53.08;100388.19;5072109;28;20493;-67
2023/05/25 01:29:49;;;;;;;5.50;4.25;;;;;;;24.35;53.06;100390.25;5072504;28;20385;-67
2023/05/25 01:32:20;;;;;;;5.03;3.88;;;;;;;24.35;53.10;100395.69;5072203;28;20049;-66
2023/05/25 01:34:50;;;;;;;5.47;3.72;;;;;;;24.34;53.14;100387.69;5072192;28;20152;-66
2023/05/25 01:37:22;;;;;;;5.07;3.78;;;;;;;24.33;53.29;100392.31;5072119;28;20044;-66
2023/05/25 01:39:50;;;;;;;4.60;3.60;;;;;;;24.32;52.90;100396.06;5071898;28;20550;-66
2023/05/25 01:42:18;;;;;;;4.32;3.67;;;;;;;24.33;52.89;100399.63;5072068;28;20044;-66
2023/05/25 01:44:46;;;;;;;4.65;3.45;;;;;;;24.30;53.05;100392.59;5072095;28;20576;-66
2023/05/25 01:47:32;;;;;;;5.07;4.18;;;;;;;24.30;53.13;100392.59;5071981;28;20051;-65
2023/05/25 01:50:06;;;;;;;5.15;3.80;;;;;;;24.28;53.17;100395.50;5071772;28;20468;-66
2023/05/25 01:52:40;;;;;;;4.95;3.95;;;;;;;24.27;52.93;100382.06;5072083;28;20041;-65
2023/05/25 01:55:12;;;;;;;4.90;3.83;;;;;;;24.26;53.20;100394.84;5071964;28;20052;-67
2023/05/25 01:57:43;;;;;;;5.40;4.20;;;;;;;24.25;53.16;100392.31;5071657;28;20102;-67
2023/05/25 02:00:13;;;;;;;4.97;4.10;;;;;;;24.25;53.08;100392.31;5071738;28;20144;-67
2023/05/25 02:02:43;;;;;;;5.30;3.85;;;;;;;24.24;53.18;100385.16;5071512;28;20458;-65
2023/05/25 02:05:12;;;;;;;4.82;3.60;;;;;;;24.23;53.05;100391.63;5071882;28;20056;-65
2023/05/25 02:07:42;;;;;;;4.57;3.80;;;;;;;24.22;53.08;100395.34;5071692;28;20126;-66
2023/05/25 02:10:11;;;;;;;4.40;3.75;;;;;;;24.21;52.99;100399.13;5071210;28;20053;-65
2023/05/25 02:12:39;;;;;;;5.18;4.10;;;;;;;24.20;53.11;100386.53;5071529;28;20099;-66
2023/05/25 02:15:08;;;;;;;4.97;3.80;;;;;;;24.19;53.01;100384.81;5071445;28;20048;-66
2023/05/25 02:17:37;;;;;;;5.00;3.75;;;;;;;24.19;53.24;100390.28;5071442;28;20131;-67
2023/05/25 02:20:07;;;;;;;5.28;3.80;;;;;;;24.18;53.04;100394.03;5071619;28;20044;-67
2023/05/25 02:22:36;;;;;;;4.50;3.90;;;;;;;24.17;53.42;100392.34;5071027;28;20052;-67
2023/05/25 02:25:09;;;;;;;4.93;3.78;;;;;;;24.16;53.09;100390.63;5071100;28;20088;-67
2023/05/25 02:27:37;;;;;;;4.70;3.60;;;;;;;24.15;53.34;100397.13;5071303;28;20048;-67
2023/05/25 02:30:07;;;;;;;5.20;4.00;;;;;;;24.14;53.11;100403.59;5071297;28;20044;-67
2023/05/25 02:32:35;;;;;;;6.00;3.88;;;;;;;24.12;53.34;100398.28;5071428;28;20044;-67
2023/05/25 02:35:03;;;;;;;4.97;4.07;;;;;;;24.11;53.10;100401.19;5070118;28;20134;-66
2023/05/25 02:37:32;;;;;;;4.63;4.07;;;;;;;24.10;53.21;100405.81;5071321;28;20051;-66
2023/05/25 02:40:00;;;;;;;5.85;3.80;;;;;;;24.09;53.33;100392.38;5071278;28;20051;-67
2023/05/25 02:42:29;;;;;;;5.10;3.80;;;;;;;24.09;53.41;100400.53;5071142;28;20051;-67
2023/05/25 02:44:57;;;;;;;5.47;4.32;;;;;;;24.07;53.08;100402.59;5071299;28;20110;-67
2023/05/25 02:47:26;;;;;;;4.75;3.90;;;;;;;24.07;53.08;100402.59;5071199;28;20051;-67
2023/05/25 02:49:56;;;;;;;5.00;4.10;;;;;;;24.07;53.21;100402.59;5071268;28;20069;-67
2023/05/25 02:52:25;;;;;;;5.25;4.13;;;;;;;24.05;53.21;100415.56;5071056;28;20063;-67
2023/05/25 02:54:53;;;;;;;4.68;4.00;;;;;;;24.05;53.29;100412.81;5071039;28;20056;-67
2023/05/25 02:57:22;;;;;;;4.97;4.07;;;;;;;24.03;53.17;100414.84;5070907;28;20154;-66
2023/05/25 02:59:52;;;;;;;4.70;4.07;;;;;;;24.02;53.26;100414.00;5070817;28;20508;-67
2023/05/25 03:02:24;;;;;;;5.15;4.00;;;;;;;24.02;53.16;100418.59;5071122;28;20048;-67
2023/05/25 03:04:52;;;;;;;4.90;4.10;;;;;;;24.00;53.27;100413.34;5070938;28;20045;-67
2023/05/25 03:07:21;;;;;;;7.13;4.80;;;;;;;24.00;53.09;100407.88;5070872;28;20052;-66
2023/05/25 03:09:49;;;;;;;5.57;4.35;;;;;;;23.98;53.22;100410.78;5070803;28;20114;-66
2023/05/25 03:12:17;;;;;;;5.82;4.50;;;;;;;23.96;53.41;100418.28;5071081;28;20126;-66
2023/05/25 03:14:45;;;;;;;6.05;4.45;;;;;;;23.96;53.34;100415.56;5069916;28;20048;-66
2023/05/25 03:17:15;;;;;;;4.72;4.20;;;;;;;23.95;53.35;100421.19;5070893;28;20054;-66
2023/05/25 03:19:43;;;;;;;5.40;4.03;;;;;;;23.94;53.23;100425.81;5070675;28;20130;-66
2023/05/25 03:22:13;;;;;;;6.43;4.10;;;;;;;23.93;53.30;100424.09;5070647;28;20040;-66
2023/05/25 03:24:41;;;;;;;5.38;4.35;;;;;;;23.93;53.19;100429.56;5070894;28;20480;-66
2023/05/25 03:27:09;;;;;;;5.43;4.20;;;;;;;23.92;53.18;100424.25;5069328;28;20048;-66
2023/05/25 03:29:37;;;;;;;5.35;4.30;;;;;;;23.91;53.31;100420.69;5070726;28;20449;-66
2023/05/25 03:32:06;;;;;;;5.50;4.40;;;;;;;23.89;53.29;100425.47;5070784;28;20090;-67
2023/05/25 03:34:36;;;;;;;5.47;4.18;;;;;;;23.90;53.33;100426.31;5071706;28;20094;-65
2023/05/25 03:37:04;;;;;;;5.43;4.30;;;;;;;23.88;53.22;100423.75;5074548;28;20067;-67
2023/05/25 03:39:32;;;;;;;5.50;4.25;;;;;;;23.88;53.16;100422.91;5074321;28;20139;-67
2023/05/25 03:42:01;;;;;;;5.45;4.20;;;;;;;23.87;53.28;100430.25;5074496;28;20424;-67
2023/05/25 03:44:29;;;;;;;4.90;3.78;;;;;;;23.87;53.23;100430.25;5074309;28;20036;-67
2023/05/25 03:46:58;;;;;;;4.97;4.00;;;;;;;23.86;53.29;100431.25;5074076;28;20150;-67
2023/05/25 03:49:26;;;;;;;6.55;4.35;;;;;;;23.85;53.21;100432.28;5073972;28;20494;-67
2023/05/25 03:51:58;;;;;;;4.65;3.85;;;;;;;23.85;53.27;100436.88;5074148;28;20072;-65
2023/05/25 03:54:27;;;;;;;5.00;4.07;;;;;;;23.83;53.22;100434.31;5074124;28;20045;-66
2023/05/25 03:56:55;;;;;;;5.00;4.00;;;;;;;23.83;53.27;100434.31;5074005;28;20409;-67
2023/05/25 03:59:24;;;;;;;5.65;4.32;;;;;;;23.82;53.36;100440.78;5073996;28;20079;-67
2023/05/25 04:01:52;;;;;;;5.10;4.00;;;;;;;23.81;53.20;100449.97;5073791;28;20044;-67
2023/05/25 04:04:20;;;;;;;5.50;4.18;;;;;;;23.80;53.21;100442.84;5073850;28;20048;-66
2023/05/25 04:06:50;;;;;;;5.80;4.00;;;;;;;23.80;53.21;100448.28;5073922;28;20053;-66
2023/05/25 04:09:20;;;;;;;5.13;3.90;;;;;;;23.80;53.24;100451.00;5073936;28;20090;-65
2023/05/25 04:11:48;;;;;;;4.80;4.00;;;;;;;23.80;53.28;100450.16;5073619;28;20052;-66
2023/05/25 04:14:16;;;;;;;4.80;3.78;;;;;;;23.79;53.19;100451.19;5073551;28;20056;-65
2023/05/25 04:16:44;;;;;;;5.03;4.07;;;;;;;23.79;53.32;100449.31;5074018;28;20044;-67
2023/05/25 04:19:13;;;;;;;5.20;3.90;;;;;;;23.78;53.29;100450.34;5073695;28;20516;-68
2023/05/25 04:21:41;;;;;;;4.55;3.75;;;;;;;23.77;53.23;100456.81;5073667;28;20051;-66
2023/05/25 04:24:09;;;;;;;5.13;4.10;;;;;;;23.77;53.16;100455.97;5073611;28;20082;-66
2023/05/25 04:26:39;;;;;;;5.05;4.00;;;;;;;23.76;53.21;100460.56;5073421;28;20052;-65
2023/05/25 04:29:08;;;;;;;4.70;3.90;;;;;;;23.77;53.27;100458.69;5073639;28;20401;-66
2023/05/25 04:31:37;;;;;;;4.57;3.72;;;;;;;23.76;53.42;100470.59;5073534;28;20048;-65
2023/05/25 04:34:08;;;;;;;4.90;3.97;;;;;;;23.75;53.25;100458.88;5073407;28;20041;-66
2023/05/25 04:36:37;;;;;;;5.28;4.20;;;;;;;23.75;53.33;100467.03;5073330;28;20044;-65
2023/05/25 04:39:06;;;;;;;5.25;3.97;;;;;;;23.75;53.45;100469.75;5073229;28;20127;-65
2023/05/25 04:41:34;;;;;;;5.38;4.13;;;;;;;23.73;53.51;100471.78;5073391;28;20048;-66
2023/05/25 04:44:03;;;;;;;5.95;4.10;;;;;;;23.74;53.45;100467.19;5073066;28;20509;-66
2023/05/25 04:46:40;;;;;;;4.88;3.97;;;;;;;23.72;53.51;100475.53;5072348;28;20044;-66
2023/05/25 04:49:08;;;;;;;5.03;4.05;;;;;;;23.72;53.47;100472.81;5073140;28;20047;-67
2023/05/25 04:51:37;;;;;;;4.85;4.13;;;;;;;23.73;53.65;100481.81;5072873;28;20144;-66
2023/05/25 04:54:05;;;;;;;5.05;4.05;;;;;;;23.70;53.75;100470.25;5072711;28;20041;-66
2023/05/25 04:56:34;;;;;;;4.88;4.20;;;;;;;23.72;53.66;100471.97;5072712;28;20121;-67
2023/05/25 04:59:03;;;;;;;5.57;4.18;;;;;;;23.70;53.54;100464.81;5072895;28;20049;-66
2023/05/25 05:01:33;;;;;;;4.97;4.28;;;;;;;23.70;53.60;100469.41;5072641;28;20048;-67
2023/05/25 05:04:01;;;;;;;5.38;4.18;;;;;;;23.72;53.87;100474.69;5072675;28;20045;-66
2023/05/25 05:06:31;;;;;;;5.15;4.05;;;;;;;23.70;53.66;100477.59;5072618;28;20099;-66
2023/05/25 05:08:59;;;;;;;5.93;4.63;;;;;;;23.72;53.57;100480.13;5072498;28;20405;-68
2023/05/25 05:11:28;;;;;;;5.35;4.10;;;;;;;23.71;53.88;100484.72;5072100;28;20176;-66
2023/05/25 05:13:56;;;;;;;5.85;4.45;;;;;;;23.72;53.80;100482.84;5072302;28;20135;-66
2023/05/25 05:16:26;;;;;;;5.40;4.22;;;;;;;23.70;53.91;100480.31;5072273;28;20048;-64
2023/05/25 05:18:54;;;;;;;5.30;4.30;;;;;;;23.70;53.78;100483.03;5072210;28;20040;-65
2023/05/25 05:21:22;;;;;;;6.07;4.32;;;;;;;23.70;54.08;100483.03;5072143;28;20481;-65
2023/05/25 05:23:50;;;;;;;5.57;4.43;;;;;;;23.70;53.88;100474.84;5072381;28;20049;-69
2023/05/25 05:26:18;;;;;;;4.90;4.30;;;;;;;23.70;54.01;100483.03;5071966;28;20429;-69
2023/05/25 05:28:46;;;;;;;5.65;4.15;;;;;;;23.69;53.99;100476.72;5072067;28;20512;-68
2023/05/25 05:31:16;;;;;;;6.57;4.20;;;;;;;23.70;53.91;100477.59;5072188;28;20052;-68
2023/05/25 05:33:45;;;;;;;5.57;4.43;;;;;;;23.70;53.85;100480.31;5071875;28;20056;-67
2023/05/25 05:36:14;;;;;;;5.68;4.38;;;;;;;23.70;53.99;100485.75;5071622;28;20136;-67
2023/05/25 05:38:45;;;;;;;5.65;4.30;;;;;;;23.70;54.10;100483.88;5070222;28;20070;-67
2023/05/25 05:41:13;;;;;;;5.20;4.10;;;;;;;23.70;54.09;100483.03;5071385;28;20048;-67
2023/05/25 05:43:42;;;;;;;5.35;4.32;;;;;;;23.70;54.10;100483.03;5071600;28;20048;-67
2023/05/25 05:46:10;;;;;;;6.15;4.40;;;;;;;23.70;54.21;100480.31;5071406;28;20325;-67
2023/05/25 05:48:39;;;;;;;5.88;4.28;;;;;;;23.72;54.20;100489.16;5071413;28;20101;-66
2023/05/25 05:51:08;;;;;;;5.50;4.63;;;;;;;23.72;54.37;100491.03;5071541;28;20473;-66
2023/05/25 05:53:36;;;;;;;5.80;4.70;;;;;;;23.72;54.39;100491.03;5071300;28;20052;-66
2023/05/25 05:56:05;;;;;;;6.28;4.55;;;;;;;23.71;54.45;100490.16;5071554;28;20125;-66
2023/05/25 05:58:34;;;;;;;6.05;4.75;;;;;;;23.72;54.50;100497.31;5071604;28;20052;-66
2023/05/25 06:01:05;;;;;;;5.55;4.53;;;;;;;23.72;54.48;100500.03;5071430;28;20093;-66
2023/05/25 06:03:33;;;;;;;6.80;4.75;;;;;;;23.73;54.46;100498.16;5071558;28;20092;-66
2023/05/25 06:06:01;;;;;;;6.72;4.25;;;;;;;23.73;54.52;100504.47;5071715;28;20135;-66
2023/05/25 06:08:31;;;;;;;6.35;4.65;;;;;;;23.73;54.76;100496.28;5071379;28;20131;-66
2023/05/25 06:10:59;;;;;;;5.80;4.40;;;;;;;23.73;54.51;100499.00;5071249;28;20048;-65
2023/05/25 06:13:27;;;;;;;6.05;4.82;;;;;;;23.75;54.61;100507.88;5071238;28;20094;-67
2023/05/25 06:15:55;;;;;;;5.20;4.50;;;;;;;23.74;54.70;100506.19;5071493;28;20052;-72
2023/05/25 06:18:24;;;;;;;6.47;4.53;;;;;;;23.74;54.56;100506.19;5071403;28;20055;-70
2023/05/25 06:20:52;;;;;;;6.13;4.30;;;;;;;23.74;54.68;100506.19;5071263;28;20041;-69
2023/05/25 06:23:20;;;;;;;5.38;4.30;;;;;;;23.75;54.61;100498.88;5071453;28;20129;-68
2023/05/25 06:25:52;;;;;;;6.18;4.28;;;;;;;23.75;54.72;100502.44;5071106;28;20057;-67
2023/05/25 06:28:20;;;;;;;5.72;4.80;;;;;;;23.75;54.57;100502.44;5070916;28;20052;-65
2023/05/25 06:30:49;;;;;;;6.85;5.20;;;;;;;23.75;54.64;100497.00;5071246;28;20080;-66
2023/05/25 06:33:17;;;;;;;7.93;5.07;;;;;;;23.76;54.73;100504.13;5071043;28;20045;-66
2023/05/25 06:35:45;;;;;;;6.38;4.90;;;;;;;23.75;54.84;100488.81;5070957;28;20049;-65
2023/05/25 06:38:15;;;;;;;6.10;4.50;;;;;;;23.76;54.79;100495.97;5070658;28;20048;-64
2023/05/25 06:40:43;;;;;;;6.25;4.68;;;;;;;23.75;54.75;100497.00;5070622;28;20048;-65
2023/05/25 06:43:13;;;;;;;6.70;4.70;;;;;;;23.76;54.76;100493.25;5071140;28;20053;-66
2023/05/25 06:45:41;;;;;;;5.80;4.82;;;;;;;23.76;54.59;100509.59;5070951;28;20449;-64
2023/05/25 06:48:10;;;;;;;7.03;4.72;;;;;;;23.77;54.75;100505.84;5070609;28;20524;-65
2023/05/25 06:50:38;;;;;;;6.78;4.95;;;;;;;23.77;54.67;100515.88;5070661;28;20461;-65
2023/05/25 06:53:07;;;;;;;6.57;5.10;;;;;;;23.77;54.82;100505.84;5069447;28;20049;-67
2023/05/25 06:55:35;;;;;;;6.35;4.93;;;;;;;23.77;54.96;100510.44;5070825;28;20052;-66
2023/05/25 06:58:03;;;;;;;6.43;4.60;;;;;;;23.77;55.07;100511.28;5071116;28;20049;-67
2023/05/25 07:00:32;;;;;;;6.05;4.75;;;;;;;23.78;54.85;100512.97;5060239;28;20044;-66
2023/05/25 07:03:01;;;;;;;7.03;4.95;;;;;;;23.78;54.96;100509.41;5070251;28;20643;-66
2023/05/25 07:05:29;;;;;;;6.13;4.85;;;;;;;23.79;54.94;100516.56;5069267;28;20041;-65
2023/05/25 07:07:58;;;;;;;6.55;4.80;;;;;;;23.80;54.89;100515.53;5070629;28;20084;-66
2023/05/25 07:10:26;;;;;;;6.80;4.97;;;;;;;23.80;55.04;100512.81;5073052;28;20051;-66
2023/05/25 07:12:54;;;;;;;6.30;4.97;;;;;;;23.80;55.01;100513.66;5074134;28;20048;-66
2023/05/25 07:15:22;;;;;;;7.63;4.63;;;;;;;23.82;55.04;100518.94;5074199;28;20048;-66
2023/05/25 07:17:52;;;;;;;6.10;4.85;;;;;;;23.82;54.96;100524.38;5074650;28;20512;-66
2023/05/25 07:20:21;;;;;;;7.68;5.07;;;;;;;23.83;55.03;100518.75;5075630;28;20048;-66
2023/05/25 07:22:52;;;;;;;6.72;4.85;;;;;;;23.83;54.94;100521.47;5075457;28;20045;-66
2023/05/25 07:25:20;;;;;;;6.25;4.57;;;;;;;23.83;54.98;100518.75;5075878;28;20049;-66
2023/05/25 07:27:49;;;;;;;7.57;5.13;;;;;;;23.84;54.82;100515.03;5075703;28;20056;-66
2023/05/25 07:30:17;;;;;;;6.65;4.70;;;;;;;23.85;54.84;100522.19;5075437;28;20094;-65
2023/05/25 07:32:45;;;;;;;7.53;5.00;;;;;;;23.86;54.90;100512.13;5074863;28;20404;-66
2023/05/25 07:35:15;;;;;;;6.30;4.55;;;;;;;23.86;55.05;100521.16;5075271;28;20041;-66
2023/05/25 07:37:43;;;;;;;6.93;4.90;;;;;;;23.87;54.94;100520.13;5075418;28;20128;-66
2023/05/25 07:40:12;;;;;;;7.10;5.03;;;;;;;23.86;55.03;100515.72;5074817;28;20400;-67
2023/05/25 07:42:40;;;;;;;6.50;4.78;;;;;;;23.88;55.14;100521.81;5075670;28;20051;-66
2023/05/25 07:45:10;;;;;;;6.88;4.82;;;;;;;23.88;55.00;100519.09;5075022;28;20102;-66
2023/05/25 07:47:38;;;;;;;7.53;4.68;;;;;;;23.89;55.05;100523.53;5074320;28;20044;-66
2023/05/25 07:50:07;;;;;;;6.85;5.20;;;;;;;23.89;55.13;100526.25;5074363;28;20529;-66
2023/05/25 07:52:37;;;;;;;6.30;4.88;;;;;;;23.90;55.11;100517.06;5074287;28;20135;-67
2023/05/25 07:55:06;;;;;;;7.40;5.30;;;;;;;23.91;55.32;100523.34;5074242;28;20059;-66
2023/05/25 07:57:35;;;;;;;6.32;5.03;;;;;;;23.92;55.28;100525.91;5074115;28;20131;-65
2023/05/25 08:00:05;;;;;;;7.07;4.70;;;;;;;23.92;55.42;100528.63;5073709;28;20051;-66
2023/05/25 08:02:33;;;;;;;6.72;5.03;;;;;;;23.94;55.16;100517.56;5073813;28;20127;-66
2023/05/25 08:05:04;;;;;;;7.38;5.05;;;;;;;23.93;55.16;100530.34;5073942;28;20054;-67
2023/05/25 08:07:33;;;;;;;7.15;5.05;;;;;;;23.94;55.34;100523.88;5074018;28;20044;-66
2023/05/25 08:10:03;;;;;;;5.88;4.70;;;;;;;23.95;55.12;100525.56;5073548;28;20409;-66
2023/05/25 08:12:32;;;;;;;6.05;5.13;;;;;;;23.97;55.23;100522.66;5073474;28;20477;-67
2023/05/25 08:15:15;;;;;;;9.60;4.85;;;;;;;23.97;55.21;100522.66;5073729;28;20110;-67
2023/05/25 08:17:43;;;;;;;8.20;4.90;;;;;;;23.97;55.19;100523.53;5073618;28;20473;-66
2023/05/25 08:20:12;;;;;;;6.28;4.95;;;;;;;23.98;55.17;100525.22;5073278;28;20120;-66
2023/05/25 08:22:41;;;;;;;7.93;4.68;;;;;;;23.99;55.33;100521.47;5072608;28;20040;-66
2023/05/25 08:25:11;;;;;;;6.13;5.10;;;;;;;24.01;55.39;100528.63;5073394;28;20486;-67
2023/05/25 08:27:39;;;;;;;6.82;4.93;;;;;;;24.01;55.35;100529.47;5073547;28;20044;-66
2023/05/25 08:30:08;;;;;;;6.68;4.97;;;;;;;24.04;55.32;100528.28;5073169;28;20131;-67
2023/05/25 08:32:36;;;;;;;6.10;4.93;;;;;;;24.04;55.33;100533.75;5073327;28;20500;-67
2023/05/25 08:35:05;;;;;;;6.35;4.55;;;;;;;24.04;55.32;100523.69;5073336;28;20137;-66
2023/05/25 08:37:34;;;;;;;7.07;4.88;;;;;;;24.05;55.40;100527.25;5073119;28;20466;-66
2023/05/25 08:40:03;;;;;;;6.72;5.10;;;;;;;24.07;55.14;100525.22;5073213;28;20054;-66
2023/05/25 08:42:33;;;;;;;8.85;5.50;;;;;;;24.07;55.38;100526.06;5073425;28;20094;-66
2023/05/25 08:45:01;;;;;;;7.20;5.05;;;;;;;24.08;55.28;100524.19;5073234;28;20056;-66
2023/05/25 08:47:32;;;;;;;6.03;4.85;;;;;;;24.09;55.33;100536.78;5073058;28;20049;-66
2023/05/25 08:50:03;;;;;;;6.72;5.18;;;;;;;24.11;55.42;100532.00;5073048;28;20298;-66
2023/05/25 08:52:33;;;;;;;6.28;4.72;;;;;;;24.11;55.54;100532.00;5072853;28;20094;-67
2023/05/25 08:55:06;;;;;;;7.35;5.47;;;;;;;24.13;55.38;100536.28;5072936;28;20555;-66
2023/05/25 08:57:48;;;;;;;7.38;4.93;;;;;;;24.14;55.27;100537.13;5073112;28;20131;-67
2023/05/25 09:00:21;;;;;;;8.15;5.13;;;;;;;24.15;55.50;100530.66;5072945;28;20044;-67
2023/05/25 09:02:54;;;;;;;6.15;4.70;;;;;;;24.15;55.44;100525.19;5072631;28;20076;-65
2023/05/25 09:05:23;;;;;;;;;;;;;;;24.17;55.51;100528.59;5073454;28;20071;-67
2023/05/25 09:07:53;;;;;;;6.38;4.50;;;;;;;24.16;55.41;100522.28;5072927;28;19989;-67
2023/05/25 09:10:22;;;;;;;6.38;4.53;;;;;;;24.17;55.24;100526.72;5072588;28;20050;-66
2023/05/25 09:12:52;;;;;;;7.85;5.53;;;;;;;24.19;55.88;100521.09;5072409;28;20063;-65
2023/05/25 09:15:22;;;;;;;6.75;5.20;;;;;;;24.19;55.84;100532.84;5072482;28;20447;-65
2023/05/25 09:17:50;;;;;;;8.00;5.43;;;;;;;24.21;55.51;100524.47;5072992;28;20476;-66
2023/05/25 09:20:19;;;;;;;8.75;5.90;;;;;;;24.22;55.79;100531.63;5072692;28;20112;-66
2023/05/25 09:22:47;;;;;;;7.00;5.22;;;;;;;24.24;55.57;100518.72;5072669;28;20086;-65
2023/05/25 09:25:19;;;;;;;7.55;5.22;;;;;;;24.25;55.57;100528.59;5072342;28;20474;-65
2023/05/25 09:27:47;;;;;;;6.63;5.10;;;;;;;24.26;55.67;100516.66;5072353;28;20045;-66
2023/05/25 09:30:16;;;;;;;8.23;5.30;;;;;;;24.27;55.51;100526.53;5071805;28;20409;-65
2023/05/25 09:32:45;;;;;;;7.15;5.05;;;;;;;24.28;55.77;100526.34;5072115;28;20473;-65
2023/05/25 09:35:14;;;;;;;6.85;5.40;;;;;;;24.30;55.66;100523.44;5071989;28;20143;-66
2023/05/25 09:37:43;;;;;;;7.85;5.82;;;;;;;24.31;55.59;100530.63;5071921;28;20106;-65
2023/05/25 09:40:12;;;;;;;6.20;4.90;;;;;;;24.32;55.65;100526.91;5071790;28;20052;-65
2023/05/25 09:42:42;;;;;;;6.60;5.10;;;;;;;24.33;55.76;100530.47;5071870;28;20041;-65
2023/05/25 09:45:11;;;;;;;7.93;5.18;;;;;;;24.34;55.65;100524.00;5071647;28;20493;-65
2023/05/25 09:47:40;;;;;;;7.03;5.25;;;;;;;24.36;55.66;100530.13;5071970;28;20048;-66
2023/05/25 09:50:09;;;;;;;6.78;5.03;;;;;;;24.37;55.61;100531.81;5071651;28;20044;-67
2023/05/25 09:52:38;;;;;;;6.30;4.80;;;;;;;24.39;55.60;100538.78;5071589;28;20102;-67
2023/05/25 09:55:09;;;;;;;9.25;5.15;;;;;;;24.40;55.74;100537.75;5071482;28;20462;-65
2023/05/25 09:57:37;;;;;;;6.60;5.35;;;;;;;24.42;55.74;100543.06;5071543;28;20048;-65
2023/05/25 10:00:07;;;;;;;7.50;5.28;;;;;;;24.43;55.72;100537.44;5071713;28;20049;-65
2023/05/25 10:02:36;;;;;;;6.78;4.97;;;;;;;24.44;55.55;100533.66;5071740;28;20123;-65
2023/05/25 10:05:07;;;;;;;6.07;4.68;;;;;;;24.45;55.79;100529.91;5071393;28;20555;-65
2023/05/25 10:07:39;;;;;;;7.32;5.07;;;;;;;24.47;55.79;100533.31;5071567;28;20075;-65
2023/05/25 10:10:10;;;;;;;7.40;5.20;;;;;;;24.48;55.55;100526.81;5071669;28;20084;-65
2023/05/25 10:12:41;;;;;;;6.85;5.20;;;;;;;24.49;55.56;100528.53;5071555;28;20129;-65
2023/05/25 10:15:13;;;;;;;6.28;5.03;;;;;;;24.51;55.86;100529.22;5071457;28;20094;-65
2023/05/25 10:17:45;;;;;;;6.05;4.75;;;;;;;24.53;55.52;100532.63;5071395;28;20449;-66
2023/05/25 10:20:15;;;;;;;7.05;5.18;;;;;;;24.55;55.71;100530.56;5071339;28;20041;-65
2023/05/25 10:22:49;;;;;;;6.47;4.88;;;;;;;24.57;55.60;100526.81;5071588;28;20127;-65
2023/05/25 10:25:23;;;;;;;7.30;5.10;;;;;;;24.58;55.96;100515.72;5071261;28;20087;-64
2023/05/25 10:27:56;;;;;;;6.80;5.20;;;;;;;24.61;55.63;100519.97;5071337;28;20127;-66
2023/05/25 10:30:27;;;;;;;6.57;4.53;;;;;;;24.62;55.82;100516.22;5071298;28;20083;-66
2023/05/25 10:32:55;;;;;;;6.22;4.82;;;;;;;24.64;55.80;100517.75;5071213;28;20482;-65
2023/05/25 10:35:26;;;;;;;6.00;4.40;;;;;;;24.65;55.86;100522.16;5071420;28;20139;-65
2023/05/25 10:37:54;;;;;;;5.45;4.43;;;;;;;24.67;55.71;100520.09;5071326;28;20040;-65
2023/05/25 10:40:24;;;;;;;7.07;5.05;;;;;;;24.71;55.94;100515.16;5071228;28;20044;-65
2023/05/25 10:42:52;;;;;;;5.82;4.63;;;;;;;24.73;55.82;100503.03;5071026;28;20045;-68
2023/05/25 10:45:21;;;;;;;6.85;4.72;;;;;;;24.76;55.90;100510.00;5070230;28;20523;-65
2023/05/25 10:47:50;;;;;;;6.20;4.50;;;;;;;24.78;55.90;100499.78;5070944;28;20506;-66
2023/05/25 10:50:19;;;;;;;7.10;5.30;;;;;;;24.79;56.06;100502.31;5070822;28;20135;-65
2023/05/25 10:53:00;;;;;;;7.47;4.88;;;;;;;24.81;55.92;100502.16;5070868;28;20448;-65
2023/05/25 10:55:31;;;;;;;5.47;4.47;;;;;;;24.82;56.00;100503.84;5071042;28;20044;-65
2023/05/25 10:58:10;;;;;;;6.68;4.80;;;;;;;24.84;55.85;100505.38;5070774;28;20098;-65
2023/05/25 11:00:39;;;;;;;6.07;4.75;;;;;;;24.86;55.76;100507.06;5071052;28;20052;-66
2023/05/25 11:03:07;;;;;;;5.85;4.90;;;;;;;24.87;55.70;100503.31;5070978;28;20105;-66
2023/05/25 11:05:38;;;;;;;6.45;4.95;;;;;;;24.89;56.16;100495.78;5070846;28;20123;-66
2023/05/25 11:08:08;;;;;;;5.40;4.38;;;;;;;24.91;55.88;100489.16;5070881;28;20407;-66
2023/05/25 11:10:58;;;;;;;5.95;4.57;;;;;;;24.93;55.86;100489.81;5070683;28;20044;-66
2023/05/25 11:13:36;;;;;;;6.57;4.90;;;;;;;24.95;56.01;100492.34;5067671;28;20084;-66
2023/05/25 11:16:23;;;;;;;6.07;4.68;;;;;;;24.96;56.25;100486.72;5070798;28;20049;-66
2023/05/25 11:18:53;;;;;;;5.90;4.70;;;;;;;24.97;56.02;100488.41;5070679;28;20420;-66
2023/05/25 11:21:39;;;;;;;6.07;4.85;;;;;;;25.00;56.09;100485.34;5070976;28;20053;-66
2023/05/25 11:24:13;;;;;;;6.53;4.90;;;;;;;25.01;56.33;100478.84;5068765;28;20044;-65
2023/05/25 11:26:56;;;;;;;5.90;4.80;;;;;;;25.03;55.98;100479.53;5070501;28;20519;-65
2023/05/25 11:29:25;;;;;;;5.60;4.57;;;;;;;25.04;55.78;100478.50;5070547;28;20366;-65
2023/05/25 11:31:55;;;;;;;5.72;4.65;;;;;;;25.05;56.00;100482.94;5070646;28;20048;-65
2023/05/25 11:34:25;;;;;;;5.43;4.75;;;;;;;25.08;55.95;100471.66;5071011;28;20083;-65
2023/05/25 11:37:00;;;;;;;6.30;4.90;;;;;;;25.11;56.04;100473.19;5070609;28;20059;-65